createdAt,value
2023-02-02T00:02:22.244Z,99736.69
2023-02-02T00:07:26.495Z,99737.06
2023-02-02T00:12:29.148Z,99736.06
2023-02-02T00:17:31.877Z,99723.41
2023-02-02T00:22:36.063Z,99732.25
2023-02-02T00:27:39.240Z,99726.44
2023-02-02T00:32:42.080Z,99720.75
2023-02-02T00:37:46.225Z,99736.78
2023-02-02T00:42:50.448Z,99724.59
2023-02-02T00:47:53.187Z,99703.59
2023-02-02T00:52:58.890Z,99713.75
2023-02-02T00:58:01.903Z,99708.06
2023-02-02T01:03:06.944Z,99703.09
2023-02-02T01:08:11.798Z,99723.44
2023-02-02T01:13:15.453Z,99731.44
2023-02-02T01:18:18.984Z,99720.94
2023-02-02T01:23:24.160Z,99726.41
2023-02-02T01:28:27.184Z,99747.75
2023-02-02T01:33:30.427Z,99745.75
2023-02-02T01:38:35.039Z,99746.94
2023-02-02T01:43:56.485Z,99748.09
2023-02-02T01:49:02.775Z,99761.78
2023-02-02T01:54:10.035Z,99762.94
2023-02-02T01:59:15.026Z,99761.31
2023-02-02T02:04:17.976Z,99760.63
2023-02-02T02:09:22.419Z,99767.81
2023-02-02T02:14:42.835Z,99760.09
2023-02-02T02:20:28.684Z,99762.41
2023-02-02T02:26:10.638Z,99770.75
2023-02-02T02:31:42.710Z,99759.09
2023-02-02T02:36:49.698Z,99757.75
2023-02-02T02:41:58.787Z,99760.59
2023-02-02T02:47:03.492Z,99749.75
2023-02-02T02:52:06.291Z,99748.09
2023-02-02T02:57:23.911Z,99750.44
2023-02-02T03:02:35.175Z,99753.09
2023-02-02T03:07:42.631Z,99764.41
2023-02-02T03:12:46.648Z,99749.09
2023-02-02T03:17:51.924Z,99749.56
2023-02-02T03:22:54.656Z,99760.56
2023-02-02T03:27:57.479Z,99740.75
2023-02-02T03:33:01.901Z,99758.09
2023-02-02T03:38:04.771Z,99752.09
2023-02-02T03:43:07.467Z,99758.25
2023-02-02T03:48:11.538Z,99766.44
2023-02-02T03:53:14.251Z,99762.41
2023-02-02T03:58:17.477Z,99760.09
2023-02-02T04:03:21.561Z,99760.75
2023-02-02T04:08:24.473Z,99766.91
2023-02-02T04:13:27.197Z,99764.25
2023-02-02T04:18:31.249Z,99777.06
2023-02-02T04:23:34.389Z,99770.06
2023-02-02T04:28:37.061Z,99772.72
2023-02-02T04:33:41.236Z,99779.22
2023-02-02T04:38:43.948Z,99780.06
2023-02-02T04:43:47.063Z,99789.88
2023-02-02T04:48:51.288Z,99787.06
2023-02-02T04:53:54.012Z,99793.72
2023-02-02T04:58:56.883Z,99790.91
2023-02-02T05:04:01.058Z,99783.88
2023-02-02T05:14:42.402Z,99799.03
2023-02-02T05:25:24.303Z,99805.69
2023-02-02T05:30:27.235Z,99798.34
2023-02-02T05:35:29.937Z,99800.88
2023-02-02T05:40:34.028Z,99804.16
2023-02-02T05:45:36.794Z,99795.34
2023-02-02T05:50:39.585Z,99783.88
2023-02-02T05:55:43.717Z,99777.84
2023-02-02T06:00:46.439Z,99791.03
2023-02-02T06:05:49.205Z,99805.34
2023-02-02T06:10:53.393Z,99818.00
2023-02-02T06:15:56.111Z,99812.34
2023-02-02T06:20:59.234Z,99809.00
2023-02-02T06:26:04.341Z,99818.00
2023-02-02T06:31:08.270Z,99833.00
2023-02-02T06:36:11.107Z,99817.16
2023-02-02T06:41:15.266Z,99836.81
2023-02-02T06:46:18.289Z,99822.47
2023-02-02T06:51:21.403Z,99826.16
2023-02-02T06:56:25.551Z,99829.50
2023-02-02T07:01:28.314Z,99837.47
2023-02-02T07:06:31.073Z,99844.66
2023-02-02T07:11:41.676Z,99856.28
2023-02-02T07:16:46.890Z,99850.47
2023-02-02T07:21:49.723Z,99854.31
2023-02-02T07:26:53.838Z,99853.00
2023-02-02T07:31:56.676Z,99854.31
2023-02-02T07:36:59.380Z,99866.66
2023-02-02T07:42:03.973Z,99864.00
2023-02-02T07:47:12.079Z,99863.69
2023-02-02T07:52:15.702Z,99873.66
2023-02-02T07:57:19.861Z,99875.03
2023-02-02T08:02:22.520Z,99873.31
2023-02-02T08:07:25.541Z,99872.34
2023-02-02T08:12:29.682Z,99871.03
2023-02-02T08:17:32.414Z,99876.69
2023-02-02T08:22:35.213Z,99887.19
2023-02-02T08:27:39.276Z,99882.72
2023-02-02T08:32:42.005Z,99891.50
2023-02-02T08:37:44.714Z,99890.53
2023-02-02T08:42:51.107Z,99897.19
2023-02-02T08:48:10.800Z,99912.19
2023-02-02T08:53:14.567Z,99918.22
2023-02-02T08:58:18.611Z,99925.03
2023-02-02T09:03:21.486Z,99923.53
2023-02-02T09:08:24.257Z,99927.72
2023-02-02T09:13:28.318Z,99938.50
2023-02-02T09:18:31.043Z,99947.88
2023-02-02T09:23:34.954Z,99949.69
2023-02-02T09:28:42.409Z,99959.53
2023-02-02T09:33:45.439Z,99960.41
2023-02-02T09:38:48.943Z,99973.72
2023-02-02T09:43:57.013Z,99977.69
2023-02-02T09:49:02.218Z,99980.78
2023-02-02T09:54:08.158Z,99990.88
2023-02-02T09:59:20.319Z,100005.72
2023-02-02T10:04:27.852Z,100010.53
2023-02-02T10:09:35.522Z,100019.41
2023-02-02T10:14:44.793Z,100036.78
2023-02-02T10:19:48.192Z,100042.22
2023-02-02T10:24:50.920Z,100046.41
2023-02-02T10:30:00.207Z,100057.06
2023-02-02T10:35:28.382Z,100053.38
2023-02-02T10:40:40.692Z,100059.25
2023-02-02T10:45:45.250Z,100063.91
2023-02-02T10:50:50.586Z,100062.06
2023-02-02T10:55:55.917Z,100053.75
2023-02-02T11:01:01.363Z,100055.59
2023-02-02T11:06:23.294Z,100056.94
2023-02-02T11:11:28.508Z,100063.94
2023-02-02T11:16:42.505Z,100072.41
2023-02-02T11:21:47.262Z,100070.09
2023-02-02T11:26:52.628Z,100076.91
2023-02-02T11:31:56.911Z,100064.94
2023-02-02T11:37:07.013Z,100075.91
2023-02-02T11:42:16.129Z,100086.09
2023-02-02T11:47:26.701Z,100075.78
2023-02-02T11:52:32.573Z,100075.78
2023-02-02T11:57:35.895Z,100059.75
2023-02-02T12:02:49.700Z,100065.94
2023-02-02T12:07:52.768Z,100067.75
2023-02-02T12:13:01.339Z,100065.94
2023-02-02T12:18:14.887Z,100065.25
2023-02-02T12:23:26.444Z,100059.75
2023-02-02T12:28:39.987Z,100058.09
2023-02-02T12:33:50.135Z,100058.94
2023-02-02T12:39:18.725Z,100059.75
2023-02-02T12:44:25.776Z,100072.09
2023-02-02T12:49:45.396Z,100059.91
2023-02-02T12:55:00.550Z,100061.59
2023-02-02T13:00:11.092Z,100056.41
2023-02-02T13:05:30.566Z,100055.44
2023-02-02T13:10:35.828Z,100065.09
2023-02-02T13:15:41.254Z,100058.94
2023-02-02T13:20:48.512Z,100072.28
2023-02-02T13:25:54.808Z,100074.94
2023-02-02T13:30:58.785Z,100065.94
2023-02-02T13:36:05.009Z,100074.09
2023-02-02T13:41:08.936Z,100068.78
2023-02-02T13:46:19.386Z,100079.44
2023-02-02T13:51:51.200Z,100080.28
2023-02-02T13:56:59.758Z,100084.44
2023-02-02T14:02:03.749Z,100080.94
2023-02-02T14:07:10.892Z,100089.09
2023-02-02T14:12:13.845Z,100098.09
2023-02-02T14:18:05.075Z,100088.41
2023-02-02T14:36:02.116Z,100091.25
2023-02-02T14:41:13.625Z,100087.09
2023-02-02T14:52:34.799Z,100107.56
2023-02-02T14:57:37.508Z,100117.06
2023-02-02T15:02:40.319Z,100119.91
2023-02-02T15:07:55.056Z,100122.56
2023-02-02T15:13:04.556Z,100115.56
2023-02-02T15:18:14.196Z,100128.88
2023-02-02T15:23:25.549Z,100120.88
2023-02-02T15:28:39.018Z,100128.88
2023-02-02T15:33:44.118Z,100142.91
2023-02-02T15:38:50.826Z,100144.88
2023-02-02T15:43:53.607Z,100148.25
2023-02-02T15:49:27.604Z,100153.56
2023-02-02T15:54:38.668Z,100166.06
2023-02-02T15:59:42.815Z,100174.06
2023-02-02T16:04:45.752Z,100174.38
2023-02-02T16:09:49.941Z,100182.38
2023-02-02T16:14:54.877Z,100180.69
2023-02-02T16:20:03.538Z,100187.03
2023-02-02T16:25:14.501Z,100189.00
2023-02-02T16:30:24.994Z,100202.53
2023-02-02T16:35:33.134Z,100199.00
2023-02-02T16:40:37.686Z,100208.81
2023-02-02T16:45:45.954Z,100209.00
2023-02-02T16:51:12.070Z,100215.16
2023-02-02T16:56:25.191Z,100208.13
2023-02-02T17:01:35.233Z,100217.97
2023-02-02T17:07:06.672Z,100228.63
2023-02-02T17:12:34.169Z,100230.31
2023-02-02T17:17:37.771Z,100220.81
2023-02-02T17:22:42.029Z,100220.81
2023-02-02T17:27:46.487Z,100212.94
2023-02-02T17:32:49.187Z,100220.94
2023-02-02T17:37:52.826Z,100223.63
2023-02-02T17:42:57.591Z,100232.63
2023-02-02T17:48:00.844Z,100230.91
2023-02-02T17:53:03.663Z,100236.25
2023-02-02T17:58:07.850Z,100235.44
2023-02-02T18:03:13.530Z,100233.75
2023-02-02T18:08:16.545Z,100253.41
2023-02-02T18:13:22.670Z,100251.41
2023-02-02T18:18:27.274Z,100253.41
2023-02-02T18:23:30.218Z,100257.59
2023-02-02T18:28:34.989Z,100259.59
2023-02-02T18:33:40.084Z,100253.56
2023-02-02T18:38:45.447Z,100265.06
2023-02-02T18:43:49.715Z,100264.06
2023-02-02T18:48:52.383Z,100262.41
2023-02-02T18:54:00.131Z,100256.22
2023-02-02T18:59:06.055Z,100263.41
2023-02-02T19:09:52.836Z,100243.03
2023-02-02T19:14:56.908Z,100237.72
2023-02-02T19:20:31.764Z,100236.06
2023-02-02T19:25:45.574Z,100242.22
2023-02-02T19:30:51.432Z,100240.56
2023-02-02T19:35:55.252Z,100253.88
2023-02-02T19:40:58.062Z,100255.69
2023-02-02T19:46:02.361Z,100262.72
2023-02-02T19:52:32.388Z,100263.84
2023-02-02T19:57:45.972Z,100260.19
2023-02-02T20:03:16.166Z,100260.19
2023-02-02T20:09:00.872Z,100255.22
2023-02-02T21:16:29.001Z,100265.50
2023-02-02T21:32:44.097Z,100295.66
2023-02-02T21:37:51.080Z,100305.38
2023-02-02T21:42:53.939Z,100314.03
2023-02-02T21:47:59.811Z,100313.88
2023-02-02T21:53:41.473Z,100323.72
2023-02-02T21:58:46.079Z,100311.34
2023-02-02T22:03:51.031Z,100304.38
2023-02-02T22:08:56.000Z,100313.06
2023-02-02T22:14:02.669Z,100304.22
2023-02-02T22:19:19.350Z,100289.19
2023-02-02T22:24:22.398Z,100294.38
2023-02-02T22:29:25.076Z,100289.06
2023-02-02T22:34:29.164Z,100297.06
2023-02-02T22:39:31.927Z,100304.88
2023-02-02T22:44:34.565Z,100302.22
2023-02-02T22:49:38.560Z,100288.06
2023-02-02T22:54:41.240Z,100302.22
2023-02-02T22:59:43.969Z,100273.75
2023-02-02T23:04:47.989Z,100285.25
2023-02-02T23:09:50.696Z,100281.75
2023-02-02T23:14:53.572Z,100279.06
2023-02-02T23:19:57.613Z,100270.22
2023-02-02T23:25:00.506Z,100274.56
2023-02-02T23:30:03.426Z,100259.41
2023-02-02T23:35:10.605Z,100271.91
2023-02-02T23:40:14.398Z,100263.06
2023-02-02T23:45:17.207Z,100275.41
2023-02-02T23:50:21.360Z,100250.56
2023-02-02T23:55:24.010Z,100236.41
